createdAt,value
2022-12-16T00:00:51.183Z,45.69
2022-12-16T00:01:56.801Z,45.66
2022-12-16T00:02:59.852Z,45.68
2022-12-16T00:04:02.331Z,45.67
2022-12-16T00:05:05.312Z,45.64
2022-12-16T00:06:08.254Z,45.68
2022-12-16T00:07:11.537Z,45.67
2022-12-16T00:08:14.147Z,45.69
2022-12-16T00:09:16.626Z,45.93
2022-12-16T00:10:18.742Z,45.93
2022-12-16T00:11:20.821Z,45.67
2022-12-16T00:12:22.885Z,45.68
2022-12-16T00:13:24.972Z,45.66
2022-12-16T00:14:27.090Z,45.67
2022-12-16T00:15:29.519Z,45.69
2022-12-16T00:16:33.014Z,45.69
2022-12-16T00:17:35.674Z,45.68
2022-12-16T00:18:37.859Z,45.67
2022-12-16T00:19:39.947Z,45.72
2022-12-16T00:21:58.554Z,45.71
2022-12-16T00:23:00.544Z,45.68
2022-12-16T00:24:02.989Z,45.69
2022-12-16T00:25:06.682Z,45.69
2022-12-16T00:26:09.145Z,45.68
2022-12-16T00:27:11.220Z,45.68
2022-12-16T00:28:14.693Z,45.70
2022-12-16T00:29:17.217Z,45.68
2022-12-16T00:30:19.350Z,45.68
2022-12-16T00:31:21.484Z,45.70
2022-12-16T00:32:23.654Z,45.67
2022-12-16T00:33:25.999Z,45.66
2022-12-16T00:34:28.188Z,45.70
2022-12-16T00:35:31.298Z,45.71
2022-12-16T00:36:33.444Z,45.71
2022-12-16T00:37:36.002Z,45.70
2022-12-16T00:38:38.683Z,45.68
2022-12-16T00:39:42.606Z,45.67
2022-12-16T00:40:45.579Z,45.68
2022-12-16T00:41:47.757Z,45.68
2022-12-16T00:42:50.063Z,45.70
2022-12-16T00:43:52.166Z,45.68
2022-12-16T00:44:54.267Z,45.72
2022-12-16T00:45:57.004Z,45.72
2022-12-16T00:46:59.255Z,45.71
2022-12-16T00:48:01.332Z,45.72
2022-12-16T00:49:04.479Z,45.72
2022-12-16T00:50:09.404Z,45.72
2022-12-16T00:51:11.634Z,45.70
2022-12-16T00:52:13.749Z,45.70
2022-12-16T00:53:15.993Z,45.69
2022-12-16T00:54:18.086Z,45.70
2022-12-16T00:55:20.716Z,45.70
2022-12-16T00:56:22.808Z,45.91
2022-12-16T00:57:24.906Z,45.91
2022-12-16T00:58:28.472Z,45.73
2022-12-16T00:59:30.554Z,45.73
2022-12-16T01:00:39.020Z,45.71
2022-12-16T01:01:42.075Z,45.75
2022-12-16T01:02:46.745Z,45.75
2022-12-16T01:03:49.243Z,45.73
2022-12-16T01:04:51.491Z,45.71
2022-12-16T01:05:55.559Z,45.70
2022-12-16T01:06:57.884Z,45.69
2022-12-16T01:08:00.471Z,45.70
2022-12-16T01:09:03.169Z,45.73
2022-12-16T01:10:05.976Z,45.73
2022-12-16T01:11:09.715Z,45.72
2022-12-16T01:12:12.173Z,45.74
2022-12-16T01:13:14.655Z,45.74
2022-12-16T01:14:17.331Z,45.69
2022-12-16T01:15:19.345Z,45.70
2022-12-16T01:16:22.030Z,45.71
2022-12-16T01:17:25.252Z,45.71
2022-12-16T01:18:27.400Z,45.71
2022-12-16T01:19:29.380Z,45.72
2022-12-16T01:20:32.851Z,45.75
2022-12-16T01:21:36.557Z,45.72
2022-12-16T01:22:38.725Z,45.75
2022-12-16T01:23:41.239Z,45.75
2022-12-16T01:24:43.939Z,45.75
2022-12-16T01:25:49.576Z,45.76
2022-12-16T01:26:53.712Z,45.76
2022-12-16T01:27:55.849Z,45.71
2022-12-16T01:28:57.920Z,45.72
2022-12-16T01:30:00.830Z,45.74
2022-12-16T01:31:03.193Z,45.74
2022-12-16T01:32:05.842Z,45.76
2022-12-16T01:33:09.849Z,45.75
2022-12-16T01:35:44.185Z,45.72
2022-12-16T01:36:20.638Z,45.71
2022-12-16T01:37:23.463Z,45.71
2022-12-16T01:38:26.630Z,45.71
2022-12-16T01:39:28.793Z,45.72
2022-12-16T01:41:34.502Z,45.71
2022-12-16T01:43:40.693Z,45.67
2022-12-16T01:44:43.749Z,45.70
2022-12-16T01:45:47.717Z,45.73
2022-12-16T01:46:57.884Z,45.70
2022-12-16T01:49:10.991Z,45.70
2022-12-16T01:50:14.730Z,45.68
2022-12-16T06:20:26.164Z,55.45
2022-12-16T06:21:28.660Z,55.37
2022-12-16T06:22:30.757Z,55.21
2022-12-16T06:23:33.334Z,55.11
2022-12-16T06:24:35.749Z,55.00
2022-12-16T06:25:38.504Z,54.71
2022-12-16T06:26:41.485Z,54.43
2022-12-16T06:27:50.594Z,54.36
2022-12-16T06:28:52.772Z,54.15
2022-12-16T06:29:54.864Z,53.77
2022-12-16T06:30:57.615Z,53.51
2022-12-16T06:32:00.205Z,53.31
2022-12-16T06:33:02.515Z,53.07
2022-12-16T06:34:04.775Z,52.79
2022-12-16T06:35:07.720Z,52.65
2022-12-16T06:36:11.967Z,52.44
2022-12-16T06:45:34.817Z,50.97
2022-12-16T06:51:48.259Z,50.38
2022-12-16T06:53:52.346Z,50.22
2022-12-16T06:56:59.089Z,50.12
2022-12-16T06:59:03.683Z,50.05
2022-12-16T07:00:07.880Z,50.02
2022-12-16T07:01:11.886Z,49.96
2022-12-16T07:02:14.206Z,49.97
2022-12-16T07:03:16.531Z,49.91
2022-12-16T07:04:21.047Z,49.83
2022-12-16T07:05:23.205Z,49.88
2022-12-16T07:06:27.043Z,49.72
2022-12-16T07:07:29.203Z,49.78
2022-12-16T07:08:31.519Z,49.70
2022-12-16T07:09:33.752Z,49.72
2022-12-16T07:10:36.366Z,49.68
2022-12-16T07:11:39.360Z,49.59
2022-12-16T07:12:41.542Z,49.61
